Time,TemperatureF,DewpointF,PressureIn,WindDirection,WindDirectionDegrees,WindSpeedMPH,WindSpeedGustMPH,Humidity,HourlyPrecipIn,Conditions,Clouds,dailyrainin,SoftwareType,DateUTC
2013-12-13 00:03:00,50.6,41.0,30.29,NE,42,0.0,1.0,71,0.00,,,0.00,weatherlink.com 1.10,2013-12-13 05:03:00,
2013-12-13 00:18:00,49.8,42.0,30.29,NE,42,0.0,0.0,74,0.00,,,0.00,weatherlink.com 1.10,2013-12-13 05:18:00,
2013-12-13 00:33:00,48.4,41.0,30.28,NE,42,0.0,0.0,76,0.00,,,0.00,weatherlink.com 1.10,2013-12-13 05:33:00,
2013-12-13 00:48:00,47.4,41.0,30.28,NE,42,0.0,0.0,79,0.00,,,0.00,weatherlink.com 1.10,2013-12-13 05:48:00,
2013-12-13 01:03:00,46.0,41.0,30.27,NE,42,0.0,0.0,82,0.00,,,0.00,weatherlink.com 1.10,2013-12-13 06:03:00,
2013-12-13 01:18:00,45.4,41.0,30.27,NE,42,0.0,0.0,83,0.00,,,0.00,weatherlink.com 1.10,2013-12-13 06:18:00,
2013-12-13 01:33:00,45.0,41.0,30.26,NE,42,0.0,0.0,84,0.00,,,0.00,weatherlink.com 1.10,2013-12-13 06:33:00,
2013-12-13 01:48:00,44.8,41.0,30.26,NE,42,0.0,0.0,87,0.00,,,0.00,weatherlink.com 1.10,2013-12-13 06:48:00,
2013-12-13 02:03:00,44.5,41.0,30.26,NE,42,0.0,0.0,88,0.00,,,0.00,weatherlink.com 1.10,2013-12-13 07:03:00,
2013-12-13 02:19:00,44.1,41.0,30.26,NE,42,0.0,0.0,90,0.00,,,0.00,weatherlink.com 1.10,2013-12-13 07:19:00,
2013-12-13 02:34:00,44.1,42.0,30.25,NE,42,0.0,0.0,91,0.00,,,0.00,weatherlink.com 1.10,2013-12-13 07:34:00,
2013-12-13 02:49:00,44.3,42.0,30.25,NE,42,0.0,0.0,92,0.00,,,0.00,weatherlink.com 1.10,2013-12-13 07:49:00,
2013-12-13 03:04:00,44.4,42.0,30.24,NE,42,0.0,1.0,92,0.00,,,0.00,weatherlink.com 1.10,2013-12-13 08:04:00,
2013-12-13 03:19:00,43.1,41.0,30.24,NE,42,0.0,0.0,93,0.00,,,0.00,weatherlink.com 1.10,2013-12-13 08:19:00,
2013-12-13 03:34:00,43.0,41.0,30.24,NE,42,0.0,0.0,94,0.00,,,0.00,weatherlink.com 1.10,2013-12-13 08:34:00,
2013-12-13 03:49:00,43.0,41.0,30.23,NE,42,0.0,0.0,94,0.00,,,0.00,weatherlink.com 1.10,2013-12-13 08:49:00,
2013-12-13 04:04:00,43.0,42.0,30.23,NE,42,0.0,0.0,95,0.00,,,0.00,weatherlink.com 1.10,2013-12-13 09:04:00,
2013-12-13 04:20:00,43.0,42.0,30.22,NE,42,0.0,0.0,95,0.00,,,0.00,weatherlink.com 1.10,2013-12-13 09:20:00,
2013-12-13 04:34:00,43.1,42.0,30.22,NE,42,0.0,0.0,95,0.00,,,0.00,weatherlink.com 1.10,2013-12-13 09:34:00,
2013-12-13 04:49:00,43.2,42.0,30.21,NE,42,0.0,0.0,96,0.00,,,0.00,weatherlink.com 1.10,2013-12-13 09:49:00,
2013-12-13 05:04:00,43.2,42.0,30.21,NE,42,0.0,0.0,96,0.00,,,0.00,weatherlink.com 1.10,2013-12-13 10:04:00,
2013-12-13 05:19:00,43.3,42.0,30.21,NE,42,0.0,0.0,96,0.00,,,0.00,weatherlink.com 1.10,2013-12-13 10:19:00,
2013-12-13 05:34:00,43.4,42.0,30.22,NE,42,0.0,0.0,96,0.00,,,0.00,weatherlink.com 1.10,2013-12-13 10:34:00,
2013-12-13 05:49:00,43.6,43.0,30.22,NE,42,0.0,0.0,97,0.00,,,0.00,weatherlink.com 1.10,2013-12-13 10:49:00,
2013-12-13 06:04:00,43.7,43.0,30.22,NE,42,0.0,1.0,97,0.00,,,0.00,weatherlink.com 1.10,2013-12-13 11:04:00,
2013-12-13 06:19:00,43.8,43.0,30.23,NE,42,0.0,0.0,97,0.00,,,0.00,weatherlink.com 1.10,2013-12-13 11:19:00,
2013-12-13 06:34:00,44.0,43.0,30.23,NE,42,0.0,2.0,97,0.00,,,0.00,weatherlink.com 1.10,2013-12-13 11:34:00,
2013-12-13 06:49:00,44.1,43.0,30.23,NE,42,0.0,0.0,97,0.00,,,0.00,weatherlink.com 1.10,2013-12-13 11:49:00,
2013-12-13 07:04:00,44.2,43.0,30.24,NE,42,0.0,1.0,97,0.00,,,0.00,weatherlink.com 1.10,2013-12-13 12:04:00,
2013-12-13 07:19:00,44.3,44.0,30.25,NE,42,0.0,0.0,97,0.00,,,0.00,weatherlink.com 1.10,2013-12-13 12:19:00,
2013-12-13 07:34:00,44.5,44.0,30.25,NE,42,0.0,1.0,97,0.00,,,0.00,weatherlink.com 1.10,2013-12-13 12:34:00,
2013-12-13 07:49:00,44.9,44.0,30.25,NE,42,0.0,1.0,97,0.00,,,0.00,weatherlink.com 1.10,2013-12-13 12:49:00,
2013-12-13 08:04:00,45.6,45.0,30.26,NE,42,0.0,1.0,98,0.00,,,0.00,weatherlink.com 1.10,2013-12-13 13:04:00,
2013-12-13 08:19:00,46.5,46.0,30.27,NW,306,0.0,3.0,98,0.00,,,0.00,weatherlink.com 1.10,2013-12-13 13:19:00,
2013-12-13 08:34:00,47.7,47.0,30.27,WNW,300,2.0,2.0,98,0.00,,,0.00,weatherlink.com 1.10,2013-12-13 13:34:00,
2013-12-13 08:49:00,49.4,49.0,30.28,NW,304,0.0,4.0,98,0.00,,,0.00,weatherlink.com 1.10,2013-12-13 13:49:00,
2013-12-13 09:04:00,51.2,51.0,30.28,NW,305,0.0,4.0,99,0.00,,,0.00,weatherlink.com 1.10,2013-12-13 14:04:00,
2013-12-13 09:19:00,52.9,53.0,30.28,NW,324,0.0,5.0,99,0.00,,,0.00,weatherlink.com 1.10,2013-12-13 14:19:00,
2013-12-13 09:34:00,55.1,55.0,30.29,NNE,22,0.0,6.0,99,0.00,,,0.00,weatherlink.com 1.10,2013-12-13 14:34:00,
2013-12-13 09:49:00,57.6,57.0,30.29,NNE,28,2.0,6.0,96,0.00,,,0.00,weatherlink.com 1.10,2013-12-13 14:49:00,
2013-12-13 10:04:00,60.2,58.0,30.28,NNE,30,0.0,4.0,91,0.00,,,0.00,weatherlink.com 1.10,2013-12-13 15:04:00,
2013-12-13 10:19:00,62.4,58.0,30.29,ENE,61,5.0,5.0,84,0.00,,,0.00,weatherlink.com 1.10,2013-12-13 15:19:00,
2013-12-13 10:34:00,65.1,59.0,30.28,ENE,62,2.0,5.0,80,0.00,,,0.00,weatherlink.com 1.10,2013-12-13 15:34:00,
2013-12-13 10:50:00,66.9,59.0,30.28,ESE,107,0.0,13.0,77,0.00,,,0.00,weatherlink.com 1.10,2013-12-13 15:50:00,
2013-12-13 11:05:00,68.1,60.0,30.27,NNE,27,2.0,10.0,75,0.00,,,0.00,weatherlink.com 1.10,2013-12-13 16:05:00,
2013-12-13 11:20:00,69.1,61.0,30.26,NNE,24,0.0,9.0,74,0.00,,,0.00,weatherlink.com 1.10,2013-12-13 16:20:00,
2013-12-13 11:35:00,70.5,60.0,30.26,East,82,5.0,9.0,70,0.00,,,0.00,weatherlink.com 1.10,2013-12-13 16:35:00,
2013-12-13 11:50:00,71.4,60.0,30.25,SE,140,3.0,10.0,68,0.00,,,0.00,weatherlink.com 1.10,2013-12-13 16:50:00,
2013-12-13 12:05:00,72.1,60.0,30.24,SE,132,3.0,10.0,66,0.00,,,0.00,weatherlink.com 1.10,2013-12-13 17:05:00,
2013-12-13 12:20:00,72.8,60.0,30.22,SE,146,4.0,11.0,65,0.00,,,0.00,weatherlink.com 1.10,2013-12-13 17:20:00,
2013-12-13 12:35:00,72.4,61.0,30.22,ESE,106,0.0,9.0,67,0.00,,,0.00,weatherlink.com 1.10,2013-12-13 17:35:00,
2013-12-13 12:50:00,72.7,61.0,30.21,East,82,3.0,9.0,66,0.00,,,0.00,weatherlink.com 1.10,2013-12-13 17:50:00,
2013-12-13 13:05:00,73.5,61.0,30.20,ENE,62,8.0,11.0,64,0.00,,,0.00,weatherlink.com 1.10,2013-12-13 18:05:00,
2013-12-13 13:20:00,72.8,57.0,30.19,East,88,8.0,11.0,59,0.00,,,0.00,weatherlink.com 1.10,2013-12-13 18:20:00,
2013-12-13 13:35:00,73.1,57.0,30.19,SSE,154,4.0,11.0,58,0.00,,,0.00,weatherlink.com 1.10,2013-12-13 18:35:00,
2013-12-13 13:50:00,72.9,58.0,30.18,ESE,112,3.0,10.0,59,0.00,,,0.00,weatherlink.com 1.10,2013-12-13 18:50:00,
2013-12-13 14:05:00,72.4,58.0,30.18,NE,52,4.0,8.0,61,0.00,,,0.00,weatherlink.com 1.10,2013-12-13 19:05:00,
2013-12-13 14:20:00,73.4,58.0,30.17,SE,124,4.0,11.0,58,0.00,,,0.00,weatherlink.com 1.10,2013-12-13 19:20:00,
2013-12-13 14:35:00,73.1,58.0,30.17,East,84,0.0,10.0,59,0.00,,,0.00,weatherlink.com 1.10,2013-12-13 19:35:00,
2013-12-13 14:50:00,72.8,57.0,30.16,ENE,59,4.0,10.0,59,0.00,,,0.00,weatherlink.com 1.10,2013-12-13 19:50:00,
2013-12-13 15:05:00,73.1,57.0,30.15,East,99,0.0,11.0,58,0.00,,,0.00,weatherlink.com 1.10,2013-12-13 20:05:00,
2013-12-13 15:20:00,73.6,57.0,30.14,ESE,103,0.0,12.0,57,0.00,,,0.00,weatherlink.com 1.10,2013-12-13 20:20:00,
2013-12-13 15:35:00,73.3,58.0,30.14,East,96,0.0,7.0,59,0.00,,,0.00,weatherlink.com 1.10,2013-12-13 20:35:00,
2013-12-13 15:50:00,73.6,58.0,30.15,East,91,2.0,10.0,58,0.00,,,0.00,weatherlink.com 1.10,2013-12-13 20:50:00,
2013-12-13 16:05:00,73.1,58.0,30.14,ENE,72,0.0,9.0,59,0.00,,,0.00,weatherlink.com 1.10,2013-12-13 21:05:00,
2013-12-13 16:20:00,72.1,58.0,30.14,ESE,113,7.0,11.0,61,0.00,,,0.00,weatherlink.com 1.10,2013-12-13 21:20:00,
2013-12-13 16:35:00,71.9,58.0,30.14,ESE,112,0.0,12.0,62,0.00,,,0.00,weatherlink.com 1.10,2013-12-13 21:35:00,
2013-12-13 16:50:00,71.6,58.0,30.14,East,96,0.0,12.0,62,0.00,,,0.00,weatherlink.com 1.10,2013-12-13 21:50:00,
2013-12-13 17:05:00,70.8,58.0,30.14,ESE,113,3.0,7.0,64,0.00,,,0.00,weatherlink.com 1.10,2013-12-13 22:05:00,
2013-12-13 17:35:00,69.7,58.0,30.14,ENE,61,1.0,9.0,67,0.00,,,0.00,weatherlink.com 1.10,2013-12-13 22:35:00,
2013-12-13 17:50:00,69.0,58.0,30.16,East,94,0.0,6.0,68,0.00,,,0.00,weatherlink.com 1.10,2013-12-13 22:50:00,
2013-12-13 18:05:00,68.4,58.0,30.15,ENE,75,0.0,4.0,69,0.00,,,0.00,weatherlink.com 1.10,2013-12-13 23:05:00,
2013-12-13 18:20:00,67.5,58.0,30.14,ENE,76,0.0,1.0,71,0.00,,,0.00,weatherlink.com 1.10,2013-12-13 23:20:00,
2013-12-13 18:35:00,66.5,58.0,30.14,ENE,76,0.0,1.0,73,0.00,,,0.00,weatherlink.com 1.10,2013-12-13 23:35:00,
2013-12-13 18:50:00,66.3,58.0,30.14,East,79,0.0,4.0,74,0.00,,,0.00,weatherlink.com 1.10,2013-12-13 23:50:00,
2013-12-13 19:05:00,66.0,58.0,30.16,East,79,0.0,1.0,75,0.00,,,0.00,weatherlink.com 1.10,2013-12-14 00:05:00,
2013-12-13 19:20:00,65.4,58.0,30.15,East,79,0.0,0.0,76,0.00,,,0.00,weatherlink.com 1.10,2013-12-14 00:20:00,
2013-12-13 19:35:00,64.8,57.0,30.15,East,79,0.0,0.0,77,0.00,,,0.00,weatherlink.com 1.10,2013-12-14 00:35:00,
2013-12-13 19:50:00,64.9,58.0,30.16,ENE,59,0.0,3.0,78,0.00,,,0.00,weatherlink.com 1.10,2013-12-14 00:50:00,
2013-12-13 20:05:00,64.7,58.0,30.16,ENE,59,1.0,2.0,78,0.00,,,0.00,weatherlink.com 1.10,2013-12-14 01:05:00,
2013-12-13 20:20:00,64.5,58.0,30.16,ENE,62,1.0,4.0,79,0.00,,,0.00,weatherlink.com 1.10,2013-12-14 01:20:00,
2013-12-13 20:35:00,64.2,58.0,30.16,ENE,63,0.0,2.0,79,0.00,,,0.00,weatherlink.com 1.10,2013-12-14 01:35:00,
2013-12-13 20:50:00,63.7,58.0,30.16,ENE,63,0.0,0.0,81,0.00,,,0.00,weatherlink.com 1.10,2013-12-14 01:50:00,
2013-12-13 21:05:00,63.6,58.0,30.16,ENE,62,0.0,1.0,81,0.00,,,0.00,weatherlink.com 1.10,2013-12-14 02:05:00,
2013-12-13 21:20:00,63.4,58.0,30.17,ENE,62,0.0,0.0,82,0.00,,,0.00,weatherlink.com 1.10,2013-12-14 02:20:00,
2013-12-13 21:35:00,63.4,58.0,30.17,ENE,62,0.0,1.0,83,0.00,,,0.00,weatherlink.com 1.10,2013-12-14 02:35:00,
2013-12-13 21:50:00,63.0,58.0,30.16,ENE,62,0.0,0.0,83,0.00,,,0.00,weatherlink.com 1.10,2013-12-14 02:50:00,
2013-12-13 22:05:00,62.5,58.0,30.15,ENE,62,0.0,0.0,85,0.00,,,0.00,weatherlink.com 1.10,2013-12-14 03:05:00,
2013-12-13 22:20:00,62.6,58.0,30.15,ENE,62,0.0,1.0,86,0.00,,,0.00,weatherlink.com 1.10,2013-12-14 03:20:00,
2013-12-13 22:35:00,62.5,58.0,30.16,ENE,62,0.0,2.0,86,0.00,,,0.00,weatherlink.com 1.10,2013-12-14 03:35:00,
2013-12-13 22:50:00,62.0,58.0,30.15,ENE,62,0.0,0.0,87,0.00,,,0.00,weatherlink.com 1.10,2013-12-14 03:50:00,
2013-12-13 23:05:00,61.0,58.0,30.14,ENE,62,0.0,0.0,89,0.00,,,0.00,weatherlink.com 1.10,2013-12-14 04:05:00,
2013-12-13 23:20:00,60.2,58.0,30.14,ENE,62,0.0,0.0,91,0.00,,,0.00,weatherlink.com 1.10,2013-12-14 04:20:00,
2013-12-13 23:35:00,59.8,58.0,30.13,ENE,62,0.0,1.0,93,0.00,,,0.00,weatherlink.com 1.10,2013-12-14 04:35:00,
2013-12-13 23:51:00,60.6,59.0,30.13,ENE,62,0.0,3.0,93,0.00,,,0.00,weatherlink.com 1.10,2013-12-14 04:51:00,